Terminal Aerodrome Forecast
Issued by NWS

Home | Current Version | Previous Version | Text Only | Print | Product List | Glossary On
Versions: 1 2 3 4 5 6 7 8 9 10 11 12 13 14 15 16 17 18 19 20 21 22 23 24 25 26 27 28 29 30 31 32 33 34 35 36 37 38 39 40 41 42 43 44 45 46 47 48 49
000
FTUS43 KDDC 230028 AAB
TAFHYS
TAF AMD
KHYS 230028Z 2300/2324 36018G23KT 6SM -TSRA VCTS FEW050 SCT070
      BKN100CB
     FM230300 04010G20KT P6SM VCSH OVC150
     FM231200 01009KT P6SM SKC
     FM231800 05009KT P6SM SCT080=

USA.gov is the U.S. government's official web portal to all federal, state and local government web resources and services.